createdAt,value
2022-09-12T04:00:31.811Z,92.14
2022-09-12T04:01:31.805Z,91.99
2022-09-12T04:02:31.793Z,91.17
2022-09-12T04:03:31.734Z,91.99
2022-09-12T04:04:31.735Z,91.78
2022-09-12T04:05:31.709Z,92.29
2022-09-12T04:06:31.695Z,92.29
2022-09-12T04:07:31.687Z,92.29
2022-09-12T04:08:31.678Z,92.40
2022-09-12T04:09:31.680Z,91.99
2022-09-12T04:10:31.656Z,92.29
2022-09-12T04:11:36.664Z,92.09
2022-09-12T04:12:31.629Z,92.29
2022-09-12T04:13:31.618Z,92.09
2022-09-12T04:14:31.620Z,91.89
2022-09-12T04:15:31.600Z,91.68
2022-09-12T04:16:31.650Z,91.48
2022-09-12T04:17:31.574Z,91.89
2022-09-12T04:18:31.562Z,91.38
2022-09-12T04:19:31.586Z,91.58
2022-09-12T04:20:31.552Z,91.48
2022-09-12T04:21:31.533Z,91.89
2022-09-12T04:22:36.537Z,91.17
2022-09-12T04:23:31.508Z,91.28
2022-09-12T04:24:31.506Z,91.68
2022-09-12T04:25:31.518Z,91.78
2022-09-12T04:26:31.482Z,92.49
2022-09-12T04:27:31.459Z,92.49
2022-09-12T04:28:31.451Z,92.29
2022-09-12T04:29:31.487Z,92.29
2022-09-12T04:30:31.468Z,92.44
2022-09-12T04:31:31.420Z,92.19
2022-09-12T04:32:31.426Z,92.29
2022-09-12T04:33:36.456Z,92.54
2022-09-12T04:34:31.391Z,92.33
2022-09-12T04:35:31.369Z,92.33
2022-09-12T04:36:31.364Z,92.29
2022-09-12T04:37:31.345Z,92.09
2022-09-12T04:38:31.332Z,92.03
2022-09-12T04:39:31.332Z,92.40
2022-09-12T04:40:31.313Z,91.99
2022-09-12T04:41:31.298Z,92.19
2022-09-12T04:42:31.287Z,92.24
2022-09-12T04:43:31.275Z,91.78
2022-09-12T04:44:36.301Z,91.78
2022-09-12T04:45:31.291Z,91.73
2022-09-12T04:46:31.239Z,92.19
2022-09-12T04:47:31.232Z,92.19
2022-09-12T04:48:31.236Z,92.44
2022-09-12T04:49:31.219Z,92.19
2022-09-12T04:50:31.195Z,91.89
2022-09-12T04:51:31.180Z,92.29
2022-09-12T04:52:31.171Z,91.78
2022-09-12T04:53:31.160Z,91.78
2022-09-12T04:54:31.162Z,91.78
2022-09-12T04:55:36.175Z,91.78
2022-09-12T04:56:31.129Z,91.63
2022-09-12T04:57:31.114Z,91.89
2022-09-12T04:58:31.110Z,90.97
2022-09-12T04:59:31.100Z,92.29
2022-09-12T05:00:31.086Z,91.68
2022-09-12T05:01:31.183Z,91.08
2022-09-12T05:02:31.097Z,92.19
2022-09-12T05:03:31.050Z,92.13
2022-09-12T05:04:31.060Z,91.52
2022-09-12T05:05:31.034Z,92.33
2022-09-12T05:06:36.028Z,92.48
2022-09-12T05:07:30.996Z,92.74
2022-09-12T05:08:30.984Z,92.58
2022-09-12T05:09:30.993Z,92.64
2022-09-12T05:10:30.967Z,92.44
2022-09-12T05:11:59.681Z,92.44
2022-09-12T05:12:31.986Z,92.94
2022-09-12T05:13:31.064Z,93.05
2022-09-12T05:14:30.915Z,92.64
2022-09-12T05:15:30.916Z,92.64
2022-09-12T05:16:30.941Z,92.64
2022-09-12T05:17:35.906Z,92.33
2022-09-12T05:18:30.888Z,92.13
2022-09-12T05:19:30.861Z,92.44
2022-09-12T05:20:30.878Z,92.54
2022-09-12T05:21:30.903Z,92.24
2022-09-12T05:22:30.854Z,92.54
2022-09-12T05:23:30.820Z,92.44
2022-09-12T05:24:30.828Z,92.24
2022-09-12T05:25:30.792Z,92.44
2022-09-12T05:26:30.783Z,92.13
2022-09-12T05:27:30.779Z,92.33
2022-09-12T05:28:35.778Z,91.78
2022-09-12T05:29:30.771Z,91.68
2022-09-12T05:30:30.780Z,91.48
2022-09-12T05:31:30.738Z,91.38
2022-09-12T05:32:30.710Z,91.28
2022-09-12T05:33:30.702Z,91.68
2022-09-12T05:34:30.695Z,91.48
2022-09-12T05:35:30.682Z,92.29
2022-09-12T05:36:30.689Z,91.17
2022-09-12T05:37:30.649Z,91.17
2022-09-12T05:38:30.635Z,91.08
2022-09-12T05:39:35.671Z,91.08
2022-09-12T05:40:30.617Z,91.08
2022-09-12T05:41:30.612Z,91.12
2022-09-12T05:42:30.603Z,91.08
2022-09-12T05:43:30.582Z,91.08
2022-09-12T05:44:30.575Z,91.17
2022-09-12T05:45:30.620Z,91.08
2022-09-12T05:46:30.558Z,91.38
2022-09-12T05:47:30.547Z,92.29
2022-09-12T05:48:30.521Z,91.44
2022-09-12T05:49:30.514Z,90.83
2022-09-12T05:50:35.542Z,90.53
2022-09-12T05:51:30.497Z,90.12
2022-09-12T05:52:30.494Z,90.12
2022-09-12T05:53:30.468Z,89.51
2022-09-12T05:54:31.723Z,89.51
2022-09-12T05:55:30.457Z,89.72
2022-09-12T05:56:30.437Z,89.37
2022-09-12T05:57:30.424Z,89.17
2022-09-12T05:58:30.417Z,88.80
2022-09-12T05:59:30.402Z,89.37
2022-09-12T06:00:33.536Z,89.37
2022-09-12T06:01:35.458Z,89.37
2022-09-12T06:02:30.402Z,88.86
2022-09-12T06:03:30.361Z,89.11
2022-09-12T06:04:30.358Z,88.66
2022-09-12T06:05:30.357Z,88.60
2022-09-12T06:06:30.322Z,88.70
2022-09-12T06:07:30.314Z,88.70
2022-09-12T06:08:30.323Z,89.31
2022-09-12T06:09:30.307Z,88.90
2022-09-12T06:10:30.334Z,89.01
2022-09-12T06:11:30.307Z,88.90
2022-09-12T06:12:35.321Z,89.01
2022-09-12T06:13:30.269Z,88.90
2022-09-12T06:14:30.341Z,89.21
2022-09-12T06:15:30.302Z,88.40
2022-09-12T06:16:30.236Z,88.90
2022-09-12T06:17:30.205Z,88.20
2022-09-12T06:18:30.191Z,88.66
2022-09-12T06:19:30.188Z,89.06
2022-09-12T06:20:30.476Z,89.37
2022-09-12T06:21:30.169Z,89.47
2022-09-12T06:22:30.227Z,88.66
2022-09-12T06:23:35.166Z,88.76
2022-09-12T06:24:30.120Z,89.47
2022-09-12T06:25:30.129Z,88.62
2022-09-12T06:26:30.095Z,88.86
2022-09-12T06:27:30.101Z,89.06
2022-09-12T06:28:30.111Z,88.62
2022-09-12T06:29:30.144Z,88.62
2022-09-12T06:30:30.162Z,88.31
2022-09-12T06:31:30.039Z,88.62
2022-09-12T06:32:30.038Z,88.42
2022-09-12T06:33:30.026Z,88.42
2022-09-12T06:34:35.045Z,88.31
2022-09-12T06:35:30.004Z,88.82
2022-09-12T06:36:29.986Z,88.51
2022-09-12T06:37:29.974Z,88.62
2022-09-12T06:38:29.956Z,88.42
2022-09-12T06:39:29.973Z,89.23
2022-09-12T06:40:29.996Z,88.42
2022-09-12T06:41:29.934Z,88.31
2022-09-12T06:42:29.910Z,88.62
2022-09-12T06:43:29.910Z,88.92
2022-09-12T06:44:29.940Z,88.82
2022-09-12T06:45:34.921Z,89.08
2022-09-12T06:46:29.864Z,88.37
2022-09-12T06:47:29.854Z,88.88
2022-09-12T06:48:29.842Z,88.68
2022-09-12T06:49:29.832Z,88.78
2022-09-12T06:50:29.822Z,88.33
2022-09-12T06:51:29.830Z,88.37
2022-09-12T06:52:29.800Z,88.13
2022-09-12T06:53:29.809Z,88.53
2022-09-12T06:54:29.790Z,88.39
2022-09-12T06:55:29.780Z,88.64
2022-09-12T06:56:34.797Z,88.19
2022-09-12T06:57:29.743Z,87.79
2022-09-12T06:58:29.735Z,88.09
2022-09-12T06:59:29.721Z,87.88
2022-09-12T07:00:29.711Z,87.88
2022-09-12T07:01:29.759Z,87.79
2022-09-12T07:02:29.779Z,87.08
2022-09-12T07:03:29.672Z,87.28
2022-09-12T07:04:29.675Z,87.28
2022-09-12T07:05:29.648Z,87.04
2022-09-12T07:06:29.655Z,87.54
2022-09-12T07:07:34.649Z,87.44
2022-09-12T07:08:29.621Z,87.30
2022-09-12T07:09:29.605Z,87.13
2022-09-12T07:10:29.603Z,87.13
2022-09-12T07:11:29.613Z,86.69
2022-09-12T07:12:29.573Z,86.29
2022-09-12T07:13:29.561Z,86.29
2022-09-12T07:14:29.554Z,85.88
2022-09-12T07:15:29.563Z,85.74
2022-09-12T07:16:30.390Z,84.73
2022-09-12T07:17:29.512Z,84.63
2022-09-12T07:18:34.533Z,84.73
2022-09-12T07:19:29.495Z,84.43
2022-09-12T07:20:29.491Z,84.43
2022-09-12T07:21:29.517Z,84.53
2022-09-12T07:22:29.457Z,84.49
2022-09-12T07:23:29.444Z,84.09
2022-09-12T07:24:29.434Z,84.29
2022-09-12T07:25:29.429Z,83.64
2022-09-12T07:26:29.429Z,83.95
2022-09-12T07:27:29.419Z,83.24
2022-09-12T07:28:29.391Z,82.84
2022-09-12T07:29:37.428Z,82.93
2022-09-12T07:30:29.451Z,82.33
2022-09-12T07:31:29.375Z,82.03
2022-09-12T07:32:29.367Z,82.64
2022-09-12T07:33:29.339Z,81.59
2022-09-12T07:34:29.349Z,81.68
2022-09-12T07:35:29.312Z,80.98
2022-09-12T07:36:29.324Z,81.28
2022-09-12T07:37:29.313Z,81.18
2022-09-12T07:38:29.275Z,80.98
2022-09-12T07:39:29.273Z,81.08
2022-09-12T07:40:34.289Z,81.18
2022-09-12T07:41:29.245Z,81.08
2022-09-12T07:42:29.230Z,80.58
2022-09-12T07:43:29.238Z,80.58
2022-09-12T07:44:29.208Z,80.24
2022-09-12T07:45:29.196Z,80.04
2022-09-12T07:46:29.195Z,79.83
2022-09-12T07:47:29.178Z,79.23
2022-09-12T07:48:29.170Z,78.92
2022-09-12T07:49:29.154Z,78.99
2022-09-12T07:50:29.145Z,77.78
2022-09-12T07:51:34.163Z,78.99
2022-09-12T07:52:29.119Z,78.79
2022-09-12T07:53:29.306Z,78.25
2022-09-12T07:54:29.103Z,77.24
2022-09-12T07:55:29.152Z,77.14
2022-09-12T07:56:31.927Z,76.90
2022-09-12T07:57:29.060Z,75.86
2022-09-12T07:58:29.051Z,75.86
2022-09-12T07:59:50.926Z,76.16
2022-09-12T08:00:30.026Z,75.86
2022-09-12T08:01:29.106Z,76.06
2022-09-12T08:02:34.095Z,75.86
2022-09-12T08:03:29.011Z,75.76
2022-09-12T08:04:28.983Z,75.86
2022-09-12T08:05:28.992Z,76.50
2022-09-12T08:06:29.035Z,76.30
2022-09-12T08:07:28.998Z,76.60
2022-09-12T08:08:28.935Z,76.90
2022-09-12T08:09:28.921Z,77.00
2022-09-12T08:10:28.915Z,77.11
2022-09-12T08:11:28.923Z,77.50
2022-09-12T08:12:28.890Z,77.50
2022-09-12T08:13:33.898Z,77.50
2022-09-12T08:14:28.866Z,76.97
2022-09-12T08:15:28.940Z,77.17
2022-09-12T08:16:28.862Z,76.67
2022-09-12T08:17:28.843Z,76.23
2022-09-12T08:18:28.823Z,76.32
2022-09-12T08:19:28.809Z,76.03
2022-09-12T08:20:28.869Z,75.82
2022-09-12T08:21:28.800Z,75.79
2022-09-12T08:22:28.775Z,74.98
2022-09-12T08:23:28.765Z,75.38
2022-09-12T08:24:33.774Z,73.68
2022-09-12T08:25:28.740Z,73.58
2022-09-12T08:26:28.747Z,73.58
2022-09-12T08:27:28.734Z,73.98
2022-09-12T08:28:28.736Z,73.68
2022-09-12T08:29:28.694Z,73.88
2022-09-12T08:30:28.724Z,74.58
2022-09-12T08:31:28.704Z,73.78
2022-09-12T08:32:28.669Z,73.38
2022-09-12T08:33:28.650Z,74.08
2022-09-12T08:34:28.645Z,73.98
2022-09-12T08:35:33.659Z,73.34
2022-09-12T08:36:28.626Z,73.14
2022-09-12T08:37:28.607Z,73.18
2022-09-12T08:38:28.602Z,73.74
2022-09-12T08:39:28.587Z,73.34
2022-09-12T08:40:28.573Z,73.54
2022-09-12T08:41:28.572Z,73.44
2022-09-12T08:42:28.552Z,72.84
2022-09-12T08:43:28.542Z,72.24
2022-09-12T08:44:28.529Z,72.30
2022-09-12T08:45:28.515Z,72.80
2022-09-12T08:46:33.552Z,71.40
2022-09-12T08:47:28.497Z,71.50
2022-09-12T08:48:28.482Z,71.60
2022-09-12T08:49:28.467Z,71.36
2022-09-12T08:50:28.464Z,71.06
2022-09-12T08:51:28.505Z,70.86
2022-09-12T08:52:28.632Z,69.96
2022-09-12T08:53:28.432Z,70.06
2022-09-12T08:54:28.419Z,69.82
2022-09-12T08:55:28.403Z,69.42
2022-09-12T08:56:31.556Z,69.62
2022-09-12T08:57:33.420Z,69.12
2022-09-12T08:58:28.369Z,68.99
2022-09-12T08:59:28.361Z,68.89
2022-09-12T09:00:28.358Z,68.89
2022-09-12T09:01:28.427Z,68.29
2022-09-12T09:02:28.397Z,68.59
2022-09-12T09:03:28.343Z,68.49
2022-09-12T09:04:29.012Z,68.59
2022-09-12T09:05:28.289Z,68.55
2022-09-12T09:06:28.288Z,68.85
2022-09-12T09:07:28.268Z,67.65
2022-09-12T09:08:33.276Z,67.38
2022-09-12T09:09:28.242Z,66.48
2022-09-12T09:10:28.242Z,67.25
2022-09-12T09:11:28.240Z,66.42
2022-09-12T09:12:28.212Z,66.42
2022-09-12T09:13:28.198Z,66.52
2022-09-12T09:14:28.186Z,66.12
2022-09-12T09:15:28.296Z,65.72
2022-09-12T09:16:28.178Z,66.72
2022-09-12T09:17:28.159Z,66.32
2022-09-12T09:18:28.175Z,66.28
2022-09-12T09:19:33.175Z,64.39
2022-09-12T09:20:28.119Z,64.75
2022-09-12T09:21:28.119Z,63.95
2022-09-12T09:22:28.100Z,64.06
2022-09-12T09:23:28.083Z,63.95
2022-09-12T09:24:28.102Z,64.06
2022-09-12T09:25:28.061Z,63.65
2022-09-12T09:26:28.069Z,63.65
2022-09-12T09:27:40.607Z,63.82
2022-09-12T09:28:29.035Z,64.03
2022-09-12T09:29:28.025Z,63.32
2022-09-12T09:30:33.039Z,63.42
2022-09-12T09:31:28.070Z,63.49
2022-09-12T09:32:27.997Z,62.89
2022-09-12T09:33:27.979Z,63.39
2022-09-12T09:34:27.982Z,62.59
2022-09-12T09:35:27.951Z,62.49
2022-09-12T09:36:27.945Z,62.82
2022-09-12T09:37:27.936Z,63.02
2022-09-12T09:38:27.959Z,63.12
2022-09-12T09:39:27.997Z,64.06
2022-09-12T09:40:27.923Z,63.89
2022-09-12T09:41:32.954Z,64.25
2022-09-12T09:42:34.532Z,64.25
2022-09-12T09:43:27.860Z,63.85
2022-09-12T09:44:27.849Z,64.06
2022-09-12T09:45:27.836Z,63.32
2022-09-12T09:46:27.924Z,64.03
2022-09-12T09:47:27.842Z,62.92
2022-09-12T09:48:27.803Z,62.92
2022-09-12T09:49:27.790Z,63.29
2022-09-12T09:50:27.810Z,63.59
2022-09-12T09:51:27.767Z,63.69
2022-09-12T09:52:32.789Z,64.09
2022-09-12T09:53:27.822Z,63.69
2022-09-12T09:54:27.737Z,63.49
2022-09-12T09:55:27.722Z,64.09
2022-09-12T09:56:27.710Z,64.03
2022-09-12T09:57:27.709Z,63.92
2022-09-12T09:58:27.695Z,63.62
2022-09-12T09:59:27.685Z,64.22
2022-09-12T10:00:27.702Z,63.82
2022-09-12T10:01:27.702Z,64.03
2022-09-12T10:02:27.752Z,63.82
2022-09-12T10:03:32.663Z,63.82
2022-09-12T10:04:27.624Z,63.89
2022-09-12T10:05:27.608Z,63.92
2022-09-12T10:06:27.616Z,63.39
2022-09-12T10:07:27.701Z,63.32
2022-09-12T10:08:27.651Z,64.39
2022-09-12T10:09:27.562Z,63.79
2022-09-12T10:10:27.551Z,64.00
2022-09-12T10:11:27.541Z,63.79
2022-09-12T10:12:27.541Z,63.09
2022-09-12T10:13:27.521Z,62.89
2022-09-12T10:14:32.531Z,63.39
2022-09-12T10:15:27.492Z,62.70
2022-09-12T10:16:27.483Z,62.79
2022-09-12T10:17:31.747Z,61.89
2022-09-12T10:18:28.458Z,62.16
2022-09-12T10:19:27.446Z,62.16
2022-09-12T10:20:27.435Z,60.86
2022-09-12T10:21:27.430Z,60.16
2022-09-12T10:22:27.451Z,60.27
2022-09-12T10:23:27.399Z,60.24
2022-09-12T10:24:27.601Z,60.24
2022-09-12T10:25:32.435Z,60.03
2022-09-12T10:26:27.370Z,60.14
2022-09-12T10:27:27.363Z,59.86
2022-09-12T10:28:27.344Z,59.97
2022-09-12T10:29:27.330Z,60.27
2022-09-12T10:30:27.371Z,60.27
2022-09-12T10:31:27.308Z,60.24
2022-09-12T10:32:30.703Z,60.03
2022-09-12T10:33:27.284Z,59.34
2022-09-12T10:34:27.275Z,58.73
2022-09-12T10:35:27.262Z,58.71
2022-09-12T10:36:32.276Z,59.83
2022-09-12T10:37:27.249Z,59.81
2022-09-12T10:38:27.251Z,58.61
2022-09-12T10:39:27.217Z,59.21
2022-09-12T10:40:27.215Z,59.38
2022-09-12T10:41:27.198Z,57.98
2022-09-12T10:42:27.201Z,57.86
2022-09-12T10:43:27.175Z,56.40
2022-09-12T10:44:27.266Z,56.10
2022-09-12T10:45:27.152Z,56.38
2022-09-12T10:46:27.265Z,56.77
2022-09-12T10:47:32.164Z,55.68
2022-09-12T10:48:27.119Z,55.48
2022-09-12T10:49:27.115Z,56.30
2022-09-12T10:50:27.128Z,56.63
2022-09-12T10:51:27.089Z,56.03
2022-09-12T10:52:27.112Z,56.76
2022-09-12T10:53:31.002Z,56.56
2022-09-12T10:54:28.070Z,56.66
2022-09-12T10:55:27.042Z,56.63
2022-09-12T10:56:27.029Z,56.26
2022-09-12T10:57:27.015Z,55.43
2022-09-12T10:58:32.038Z,54.36
2022-09-12T10:59:27.005Z,54.16
2022-09-12T11:00:26.982Z,54.96
2022-09-12T11:01:26.996Z,54.46
2022-09-12T11:02:27.011Z,53.94
2022-09-12T11:03:26.960Z,54.74
2022-09-12T11:04:26.941Z,53.84
2022-09-12T11:05:26.965Z,53.84
2022-09-12T11:06:26.930Z,54.41
2022-09-12T11:07:26.918Z,54.64
2022-09-12T11:08:27.041Z,54.53
2022-09-12T11:09:31.919Z,54.31
2022-09-12T11:10:26.885Z,53.52
2022-09-12T11:11:26.860Z,53.71
2022-09-12T11:12:26.858Z,53.84
2022-09-12T11:13:26.847Z,53.64
2022-09-12T11:14:26.827Z,53.84
2022-09-12T11:15:26.816Z,54.53
2022-09-12T11:16:26.824Z,54.57
2022-09-12T11:17:26.792Z,54.96
2022-09-12T11:18:26.792Z,54.57
2022-09-12T11:19:26.776Z,55.06
2022-09-12T11:20:31.782Z,55.96
2022-09-12T11:21:26.753Z,54.96
2022-09-12T11:22:31.068Z,54.83
2022-09-12T11:23:27.736Z,55.54
2022-09-12T11:24:26.715Z,54.61
2022-09-12T11:25:26.724Z,53.91
2022-09-12T11:26:26.693Z,55.01
2022-09-12T11:27:26.680Z,53.78
2022-09-12T11:28:26.679Z,52.86
2022-09-12T11:29:26.658Z,52.02
2022-09-12T11:30:26.646Z,52.62
2022-09-12T11:31:31.657Z,50.63
2022-09-12T11:32:26.626Z,50.05
2022-09-12T11:33:26.625Z,50.75
2022-09-12T11:34:26.601Z,51.32
2022-09-12T11:35:26.592Z,49.83
2022-09-12T11:36:26.582Z,48.81
2022-09-12T11:37:26.671Z,47.99
2022-09-12T11:38:26.568Z,48.77
2022-09-12T11:39:26.545Z,48.27
2022-09-12T11:40:26.599Z,47.38
2022-09-12T11:41:26.542Z,48.10
2022-09-12T11:42:31.532Z,48.69
2022-09-12T11:43:26.515Z,48.49
2022-09-12T11:44:26.487Z,48.79
2022-09-12T11:45:26.481Z,48.79
2022-09-12T11:46:26.489Z,48.39
2022-09-12T11:47:26.457Z,49.51
2022-09-12T11:48:26.457Z,49.43
2022-09-12T11:49:26.473Z,50.25
2022-09-12T11:50:26.424Z,50.45
2022-09-12T11:51:26.411Z,50.57
2022-09-12T11:52:26.478Z,50.90
2022-09-12T11:53:31.433Z,51.10
2022-09-12T11:54:26.383Z,51.29
2022-09-12T11:55:26.371Z,51.07
2022-09-12T11:56:26.354Z,50.87
2022-09-12T11:57:26.363Z,51.35
2022-09-12T11:58:26.332Z,51.25
2022-09-12T11:59:26.335Z,50.73
2022-09-12T12:00:26.311Z,49.76
2022-09-12T12:01:26.298Z,49.93
2022-09-12T12:02:26.326Z,49.53
2022-09-12T12:03:26.305Z,49.91
2022-09-12T12:04:31.294Z,49.49
2022-09-12T12:05:26.255Z,48.05
2022-09-12T12:06:26.242Z,46.77
2022-09-12T12:07:26.232Z,44.52
2022-09-12T12:08:26.218Z,43.80
2022-09-12T12:09:26.219Z,43.27
2022-09-12T12:10:26.202Z,42.83
2022-09-12T12:11:26.188Z,41.57
2022-09-12T12:12:26.184Z,41.95
2022-09-12T12:13:26.187Z,41.28
2022-09-12T12:14:26.168Z,42.68
2022-09-12T12:15:31.271Z,42.83
2022-09-12T12:16:26.160Z,41.12
2022-09-12T12:17:26.159Z,40.37
2022-09-12T12:18:26.109Z,40.27
2022-09-12T12:19:26.116Z,40.51
2022-09-12T12:20:26.093Z,41.43
2022-09-12T12:21:26.078Z,40.92
2022-09-12T12:22:26.080Z,41.63
2022-09-12T12:23:26.062Z,41.16
2022-09-12T12:24:26.079Z,41.61
2022-09-12T12:25:29.673Z,40.29
2022-09-12T12:26:26.022Z,41.00
2022-09-12T12:27:26.013Z,41.02
2022-09-12T12:28:34.922Z,40.94
2022-09-12T12:29:26.015Z,41.65
2022-09-12T12:30:26.014Z,42.64
2022-09-12T12:31:26.005Z,41.25
2022-09-12T12:32:25.959Z,41.46
2022-09-12T12:33:25.957Z,41.30
2022-09-12T12:34:25.946Z,39.89
2022-09-12T12:35:25.927Z,39.97
2022-09-12T12:36:25.920Z,39.70
2022-09-12T12:37:25.908Z,40.56
2022-09-12T12:38:25.895Z,39.87
2022-09-12T12:39:25.903Z,38.28
2022-09-12T12:40:25.881Z,38.78
2022-09-12T12:41:30.892Z,38.34
2022-09-12T12:42:25.879Z,37.15
2022-09-12T12:43:25.906Z,38.68
2022-09-12T12:44:25.865Z,39.70
2022-09-12T12:45:25.820Z,39.15
2022-09-12T12:46:25.894Z,39.52
2022-09-12T12:47:25.813Z,41.02
2022-09-12T12:48:25.800Z,41.75
2022-09-12T12:49:25.779Z,42.78
2022-09-12T12:50:25.768Z,43.02
2022-09-12T12:51:25.757Z,44.13
2022-09-12T12:52:25.756Z,43.64
2022-09-12T12:53:25.744Z,43.96
2022-09-12T12:54:30.742Z,45.47
2022-09-12T12:55:25.733Z,45.96
2022-09-12T12:56:25.727Z,46.08
2022-09-12T12:57:25.689Z,45.29
2022-09-12T12:58:25.752Z,46.78
2022-09-12T12:59:25.679Z,46.88
2022-09-12T13:00:25.672Z,46.88
2022-09-12T13:01:25.694Z,46.50
2022-09-12T13:02:25.663Z,47.10
2022-09-12T13:03:25.633Z,47.22
2022-09-12T13:04:25.623Z,48.11
2022-09-12T13:05:25.604Z,47.62
2022-09-12T13:06:25.591Z,48.11
2022-09-12T13:07:30.600Z,48.22
2022-09-12T13:08:25.565Z,47.42
2022-09-12T13:09:25.570Z,47.22
2022-09-12T13:10:25.557Z,48.19
2022-09-12T13:11:25.540Z,47.30
2022-09-12T13:12:25.561Z,45.83
2022-09-12T13:13:25.538Z,45.81
2022-09-12T13:14:25.514Z,46.03
2022-09-12T13:15:25.510Z,45.90
2022-09-12T13:16:25.497Z,45.93
2022-09-12T13:17:25.468Z,46.60
2022-09-12T13:18:30.485Z,46.33
2022-09-12T13:19:25.455Z,46.03
2022-09-12T13:20:29.384Z,46.92
2022-09-12T13:21:25.421Z,47.13
2022-09-12T13:22:25.420Z,46.42
2022-09-12T13:23:25.401Z,46.42
2022-09-12T13:24:25.421Z,46.53
2022-09-12T13:25:25.377Z,47.13
2022-09-12T13:26:25.369Z,47.62
2022-09-12T13:27:25.354Z,47.52
2022-09-12T13:28:25.345Z,47.22
2022-09-12T13:29:30.365Z,48.41
2022-09-12T13:30:25.321Z,47.82
2022-09-12T13:31:25.389Z,48.11
2022-09-12T13:32:25.618Z,48.41
2022-09-12T13:33:25.360Z,48.71
2022-09-12T13:34:25.382Z,47.92
2022-09-12T13:35:25.269Z,48.02
2022-09-12T13:36:25.296Z,48.81
2022-09-12T13:37:25.249Z,48.52
2022-09-12T13:38:25.235Z,48.22
2022-09-12T13:39:25.237Z,48.41
2022-09-12T13:40:30.236Z,48.32
2022-09-12T13:41:25.228Z,48.02
2022-09-12T13:42:25.190Z,47.62
2022-09-12T13:43:25.182Z,48.32
2022-09-12T13:44:25.192Z,48.61
2022-09-12T13:45:25.178Z,48.41
2022-09-12T13:46:25.254Z,48.10
2022-09-12T13:47:25.142Z,47.52
2022-09-12T13:48:25.182Z,47.52
2022-09-12T13:49:25.124Z,47.13
2022-09-12T13:50:25.101Z,46.62
2022-09-12T13:51:30.111Z,45.93
2022-09-12T13:52:25.086Z,46.83
2022-09-12T13:53:25.067Z,46.83
2022-09-12T13:54:25.100Z,47.05
2022-09-12T13:55:25.055Z,47.64
2022-09-12T13:56:25.035Z,46.95
2022-09-12T13:57:25.021Z,47.22
2022-09-12T13:58:25.011Z,46.75
2022-09-12T13:59:25.010Z,46.55
2022-09-12T14:00:24.988Z,47.05
2022-09-12T14:01:25.003Z,47.25
2022-09-12T14:02:30.008Z,47.34
2022-09-12T14:03:24.954Z,47.84
2022-09-12T14:04:24.979Z,47.84
2022-09-12T14:05:24.934Z,48.04
2022-09-12T14:06:24.943Z,47.84
2022-09-12T14:07:24.910Z,48.22
2022-09-12T14:08:24.899Z,47.92
2022-09-12T14:09:25.449Z,48.32
2022-09-12T14:10:24.881Z,47.84
2022-09-12T14:11:24.873Z,47.64
2022-09-12T14:12:24.860Z,46.83
2022-09-12T14:13:29.870Z,47.54
2022-09-12T14:14:24.855Z,46.72
2022-09-12T14:15:24.823Z,47.42
2022-09-12T14:16:24.806Z,45.83
2022-09-12T14:17:24.802Z,46.23
2022-09-12T14:18:24.788Z,45.33
2022-09-12T14:19:24.817Z,46.03
2022-09-12T14:20:24.792Z,45.73
2022-09-12T14:21:24.752Z,46.33
2022-09-12T14:22:24.743Z,45.23
2022-09-12T14:23:24.733Z,45.73
2022-09-12T14:24:29.748Z,45.83
2022-09-12T14:25:24.715Z,45.14
2022-09-12T14:26:24.695Z,46.13
2022-09-12T14:27:24.715Z,45.63
2022-09-12T14:28:24.672Z,46.03
2022-09-12T14:29:24.672Z,46.03
2022-09-12T14:30:24.655Z,45.61
2022-09-12T14:31:24.682Z,45.73
2022-09-12T14:32:24.638Z,45.93
2022-09-12T14:33:24.619Z,47.00
2022-09-12T14:34:24.606Z,46.90
2022-09-12T14:35:29.645Z,46.20
2022-09-12T14:36:24.614Z,46.01
2022-09-12T14:37:24.572Z,46.11
2022-09-12T14:38:24.617Z,46.01
2022-09-12T14:39:24.550Z,46.11
2022-09-12T14:40:24.571Z,45.41
2022-09-12T14:41:24.527Z,46.01
2022-09-12T14:42:24.516Z,45.31
2022-09-12T14:43:24.505Z,46.11
2022-09-12T14:44:24.499Z,45.71
2022-09-12T14:45:24.501Z,45.51
2022-09-12T14:46:29.555Z,45.41
2022-09-12T14:47:24.535Z,45.81
2022-09-12T14:48:24.450Z,45.71
2022-09-12T14:49:24.439Z,45.51
2022-09-12T14:50:24.439Z,45.11
2022-09-12T14:51:24.439Z,45.11
2022-09-12T14:52:24.409Z,45.41
2022-09-12T14:53:24.396Z,44.92
2022-09-12T14:54:24.382Z,44.92
2022-09-12T14:55:24.385Z,44.42
2022-09-12T14:56:24.359Z,43.82
2022-09-12T14:57:29.375Z,44.24
2022-09-12T14:58:24.335Z,44.12
2022-09-12T14:59:24.330Z,44.34
2022-09-12T15:00:24.327Z,43.82
2022-09-12T15:01:24.303Z,43.82
2022-09-12T15:02:24.331Z,44.32
2022-09-12T15:03:24.333Z,45.01
2022-09-12T15:04:24.296Z,44.84
2022-09-12T15:05:24.269Z,44.52
2022-09-12T15:06:24.250Z,45.01
2022-09-12T15:07:24.253Z,44.44
2022-09-12T15:08:29.255Z,44.93
2022-09-12T15:09:24.214Z,44.93
2022-09-12T15:10:24.229Z,44.24
2022-09-12T15:11:24.191Z,45.73
2022-09-12T15:12:24.180Z,44.64
2022-09-12T15:13:24.173Z,45.63
2022-09-12T15:14:24.207Z,45.41
2022-09-12T15:15:24.166Z,44.52
2022-09-12T15:16:24.243Z,44.42
2022-09-12T15:17:24.124Z,45.41
2022-09-12T15:18:24.113Z,45.31
2022-09-12T15:19:29.124Z,45.71
2022-09-12T15:20:24.106Z,46.01
2022-09-12T15:21:24.082Z,45.83
2022-09-12T15:22:24.100Z,45.41
2022-09-12T15:23:24.079Z,45.43
2022-09-12T15:24:24.048Z,44.54
2022-09-12T15:25:24.046Z,45.41
2022-09-12T15:26:24.022Z,45.63
2022-09-12T15:27:24.010Z,46.03
2022-09-12T15:28:24.014Z,44.74
2022-09-12T15:29:24.003Z,45.23
2022-09-12T15:30:29.013Z,44.93
2022-09-12T15:31:24.020Z,45.33
2022-09-12T15:32:23.957Z,46.23
2022-09-12T15:33:23.943Z,45.63
2022-09-12T15:34:23.936Z,45.11
2022-09-12T15:35:23.933Z,45.83
2022-09-12T15:36:23.914Z,46.03
2022-09-12T15:37:23.898Z,45.73
2022-09-12T15:38:26.489Z,46.03
2022-09-12T15:39:23.984Z,45.63
2022-09-12T15:40:23.926Z,45.33
2022-09-12T15:41:28.878Z,45.33
2022-09-12T15:42:23.845Z,45.53
2022-09-12T15:43:23.840Z,45.03
2022-09-12T15:44:23.825Z,45.23
2022-09-12T15:45:23.819Z,45.23
2022-09-12T15:46:23.841Z,45.73
2022-09-12T15:47:23.794Z,44.54
2022-09-12T15:48:23.777Z,44.64
2022-09-12T15:49:23.768Z,44.74
2022-09-12T15:50:23.764Z,44.44
2022-09-12T15:51:23.742Z,44.54
2022-09-12T15:52:28.757Z,44.44
2022-09-12T15:53:23.718Z,44.44
2022-09-12T15:54:23.709Z,44.64
2022-09-12T15:55:23.809Z,44.84
2022-09-12T15:56:23.691Z,44.84
2022-09-12T15:57:23.675Z,45.23
2022-09-12T15:58:23.665Z,44.34
2022-09-12T15:59:23.655Z,44.54
2022-09-12T16:00:23.653Z,44.93
2022-09-12T16:01:23.690Z,44.04
2022-09-12T16:02:23.712Z,44.44
2022-09-12T16:03:28.646Z,44.84
2022-09-12T16:04:23.598Z,44.64
2022-09-12T16:05:23.593Z,45.63
2022-09-12T16:06:23.575Z,45.03
2022-09-12T16:07:23.561Z,45.23
2022-09-12T16:08:23.559Z,45.14
2022-09-12T16:09:23.542Z,45.85
2022-09-12T16:10:23.541Z,45.06
2022-09-12T16:11:23.623Z,45.15
2022-09-12T16:12:23.507Z,45.53
2022-09-12T16:13:23.496Z,46.25
2022-09-12T16:14:28.508Z,45.75
2022-09-12T16:15:23.496Z,45.26
2022-09-12T16:16:23.547Z,46.35
2022-09-12T16:17:23.480Z,45.65
2022-09-12T16:18:23.440Z,45.26
2022-09-12T16:19:23.436Z,44.56
2022-09-12T16:20:23.440Z,46.15
2022-09-12T16:21:23.404Z,45.85
2022-09-12T16:22:23.396Z,46.05
2022-09-12T16:23:23.381Z,45.85
2022-09-12T16:24:23.381Z,45.95
2022-09-12T16:25:28.391Z,45.85
2022-09-12T16:26:23.351Z,45.15
2022-09-12T16:27:23.380Z,45.73
2022-09-12T16:28:23.327Z,45.85
2022-09-12T16:29:23.317Z,46.05
2022-09-12T16:30:23.324Z,45.95
2022-09-12T16:31:23.357Z,46.75
2022-09-12T16:32:23.288Z,46.92
2022-09-12T16:33:23.284Z,46.75
2022-09-12T16:34:23.260Z,48.44
2022-09-12T16:35:23.260Z,48.44
2022-09-12T16:36:28.263Z,47.74
2022-09-12T16:37:23.224Z,48.36
2022-09-12T16:38:23.217Z,47.84
2022-09-12T16:39:23.206Z,47.07
2022-09-12T16:40:23.257Z,46.87
2022-09-12T16:41:24.365Z,46.77
2022-09-12T16:42:23.173Z,47.27
2022-09-12T16:43:23.178Z,47.96
2022-09-12T16:44:23.149Z,48.16
2022-09-12T16:45:23.151Z,48.46
2022-09-12T16:46:23.170Z,48.07
2022-09-12T16:47:28.146Z,47.17
2022-09-12T16:48:23.107Z,46.99
2022-09-12T16:49:23.090Z,47.96
2022-09-12T16:50:23.096Z,48.16
2022-09-12T16:51:23.106Z,46.67
2022-09-12T16:52:23.061Z,46.89